Hlavní strana
METAR-TAF:

METAR-TAF

Letiště :

Cross City, Florida, Spojené státy americké

zeměpisná šířka: 29-33-00N, zeměpisná délka: 083-06-19W, výška: 12 m

Aktuální stav počasí

Zpráva byla vytvořena před 19 minutami, v 11:15 UTC
Bezvětří
Teplota 16°C
Vlhkost vzduchu 100%
Tlak 1021 hPa
Viditelnost: 16.1 km
Jasno

METAR: KCTY 241115Z AUTO 00000KT 10SM CLR 16/16 A3015 RMK AO2 T01640156

Čas: 07:34 (11:34 UTC)


TAF: chybějící

Stav a předpovědi počasí z více než 4 000 letišť (zprávy METAR a TAF).

Červené a žluté tečky na mapě představují dostupné meteorologické stanice.

Když kurzor umístíte na tečku, zobrazí se název stanice.

Pak kliknutím zobrazíte stav a předpověď počasí.

Chcete-li změnit mapu, kliknutím na zelené tlačítko se znaménkem +mapu přiblížíte, kliknutím na zelené tlačítko se znaménkem – mapu oddálíte a kliknutím na zelené šipky přejdete na sousední mapy.


METAR-TAF: